sensor_id;sensor_type;location;lat;lon;timestamp;temperature;humidity
44851;DHT22;30583;48.714;9.386;2022-07-23T00:00:11;30.60;42.80
44851;DHT22;30583;48.714;9.386;2022-07-23T00:02:37;30.60;42.70
44851;DHT22;30583;48.714;9.386;2022-07-23T00:05:03;30.30;43.60
44851;DHT22;30583;48.714;9.386;2022-07-23T00:07:29;30.50;43.70
44851;DHT22;30583;48.714;9.386;2022-07-23T00:09:55;30.40;44.00
44851;DHT22;30583;48.714;9.386;2022-07-23T00:12:21;30.40;43.60
44851;DHT22;30583;48.714;9.386;2022-07-23T00:14:46;30.50;42.90
44851;DHT22;30583;48.714;9.386;2022-07-23T00:17:12;30.40;43.10
44851;DHT22;30583;48.714;9.386;2022-07-23T00:19:37;30.40;43.10
44851;DHT22;30583;48.714;9.386;2022-07-23T00:22:03;30.60;42.30
44851;DHT22;30583;48.714;9.386;2022-07-23T00:24:29;30.70;41.90
44851;DHT22;30583;48.714;9.386;2022-07-23T00:26:54;30.70;41.40
44851;DHT22;30583;48.714;9.386;2022-07-23T00:29:20;30.70;40.90
44851;DHT22;30583;48.714;9.386;2022-07-23T00:31:46;30.50;41.10
44851;DHT22;30583;48.714;9.386;2022-07-23T00:34:11;30.20;41.90
44851;DHT22;30583;48.714;9.386;2022-07-23T00:36:37;30.00;42.30
44851;DHT22;30583;48.714;9.386;2022-07-23T00:39:03;29.20;43.80
44851;DHT22;30583;48.714;9.386;2022-07-23T00:41:29;29.70;43.40
44851;DHT22;30583;48.714;9.386;2022-07-23T00:43:54;29.70;43.60
44851;DHT22;30583;48.714;9.386;2022-07-23T00:46:23;29.60;43.80
44851;DHT22;30583;48.714;9.386;2022-07-23T00:48:50;29.50;44.30
44851;DHT22;30583;48.714;9.386;2022-07-23T00:51:16;29.20;44.40
44851;DHT22;30583;48.714;9.386;2022-07-23T00:53:42;29.20;44.10
44851;DHT22;30583;48.714;9.386;2022-07-23T00:56:08;29.20;44.30
44851;DHT22;30583;48.714;9.386;2022-07-23T00:58:35;29.30;45.10
44851;DHT22;30583;48.714;9.386;2022-07-23T01:01:01;29.00;45.50
44851;DHT22;30583;48.714;9.386;2022-07-23T01:03:27;28.70;44.20
44851;DHT22;30583;48.714;9.386;2022-07-23T01:05:53;27.90;46.20
44851;DHT22;30583;48.714;9.386;2022-07-23T01:08:20;28.80;44.70
44851;DHT22;30583;48.714;9.386;2022-07-23T01:10:47;28.70;44.50
44851;DHT22;30583;48.714;9.386;2022-07-23T01:13:13;28.80;44.20
44851;DHT22;30583;48.714;9.386;2022-07-23T01:15:39;29.30;43.30
44851;DHT22;30583;48.714;9.386;2022-07-23T01:18:07;29.10;43.50
44851;DHT22;30583;48.714;9.386;2022-07-23T01:20:34;29.30;43.20
44851;DHT22;30583;48.714;9.386;2022-07-23T01:22:59;29.20;43.10
44851;DHT22;30583;48.714;9.386;2022-07-23T01:25:25;29.10;43.40
44851;DHT22;30583;48.714;9.386;2022-07-23T01:27:52;29.20;43.00
44851;DHT22;30583;48.714;9.386;2022-07-23T01:30:18;29.20;42.90
44851;DHT22;30583;48.714;9.386;2022-07-23T01:32:44;29.30;42.70
44851;DHT22;30583;48.714;9.386;2022-07-23T01:35:10;29.40;43.20
44851;DHT22;30583;48.714;9.386;2022-07-23T01:37:37;29.40;43.70
44851;DHT22;30583;48.714;9.386;2022-07-23T01:40:03;29.00;44.40
44851;DHT22;30583;48.714;9.386;2022-07-23T01:42:29;29.00;45.00
44851;DHT22;30583;48.714;9.386;2022-07-23T01:44:55;29.00;45.50
44851;DHT22;30583;48.714;9.386;2022-07-23T01:47:21;29.20;45.30
44851;DHT22;30583;48.714;9.386;2022-07-23T01:49:46;29.20;45.00
44851;DHT22;30583;48.714;9.386;2022-07-23T01:52:12;29.30;44.90
44851;DHT22;30583;48.714;9.386;2022-07-23T01:54:38;29.40;45.20
44851;DHT22;30583;48.714;9.386;2022-07-23T01:57:05;29.30;45.70
44851;DHT22;30583;48.714;9.386;2022-07-23T01:59:31;29.20;45.20
44851;DHT22;30583;48.714;9.386;2022-07-23T02:01:57;29.30;45.30
44851;DHT22;30583;48.714;9.386;2022-07-23T02:04:24;29.20;45.50
44851;DHT22;30583;48.714;9.386;2022-07-23T02:06:50;28.40;45.90
44851;DHT22;30583;48.714;9.386;2022-07-23T02:09:16;28.00;47.60
44851;DHT22;30583;48.714;9.386;2022-07-23T02:11:42;27.70;48.70
44851;DHT22;30583;48.714;9.386;2022-07-23T02:14:08;27.60;49.00
44851;DHT22;30583;48.714;9.386;2022-07-23T02:16:33;27.60;49.40
44851;DHT22;30583;48.714;9.386;2022-07-23T02:18:59;27.50;49.10
44851;DHT22;30583;48.714;9.386;2022-07-23T02:21:24;27.50;49.60
44851;DHT22;30583;48.714;9.386;2022-07-23T02:23:50;27.50;49.50
44851;DHT22;30583;48.714;9.386;2022-07-23T02:26:16;27.40;49.60
44851;DHT22;30583;48.714;9.386;2022-07-23T02:28:41;27.20;49.40
44851;DHT22;30583;48.714;9.386;2022-07-23T02:31:07;27.00;50.30
44851;DHT22;30583;48.714;9.386;2022-07-23T02:33:33;27.10;50.50
44851;DHT22;30583;48.714;9.386;2022-07-23T02:35:59;27.20;50.40
44851;DHT22;30583;48.714;9.386;2022-07-23T02:38:25;27.00;50.80
44851;DHT22;30583;48.714;9.386;2022-07-23T02:40:51;26.90;51.10
44851;DHT22;30583;48.714;9.386;2022-07-23T02:43:17;26.70;51.60
44851;DHT22;30583;48.714;9.386;2022-07-23T02:45:42;26.80;51.40
44851;DHT22;30583;48.714;9.386;2022-07-23T02:48:08;26.90;51.60
44851;DHT22;30583;48.714;9.386;2022-07-23T02:50:33;26.80;51.80
44851;DHT22;30583;48.714;9.386;2022-07-23T02:52:59;26.80;51.70
44851;DHT22;30583;48.714;9.386;2022-07-23T02:55:25;26.70;52.10
44851;DHT22;30583;48.714;9.386;2022-07-23T02:57:50;26.50;52.20
44851;DHT22;30583;48.714;9.386;2022-07-23T03:00:16;26.40;52.50
44851;DHT22;30583;48.714;9.386;2022-07-23T03:02:42;26.60;52.70
44851;DHT22;30583;48.714;9.386;2022-07-23T03:05:08;26.50;52.90
44851;DHT22;30583;48.714;9.386;2022-07-23T03:07:33;26.50;52.80
44851;DHT22;30583;48.714;9.386;2022-07-23T03:09:59;26.50;53.20
44851;DHT22;30583;48.714;9.386;2022-07-23T03:12:25;26.40;53.50
44851;DHT22;30583;48.714;9.386;2022-07-23T03:14:50;26.20;53.60
44851;DHT22;30583;48.714;9.386;2022-07-23T03:17:16;26.30;53.70
44851;DHT22;30583;48.714;9.386;2022-07-23T03:19:42;26.40;53.60
44851;DHT22;30583;48.714;9.386;2022-07-23T03:22:08;26.20;54.10
44851;DHT22;30583;48.714;9.386;2022-07-23T03:24:33;26.10;54.50
44851;DHT22;30583;48.714;9.386;2022-07-23T03:27:18;26.10;54.80
44851;DHT22;30583;48.714;9.386;2022-07-23T03:29:43;26.00;54.90
44851;DHT22;30583;48.714;9.386;2022-07-23T03:32:09;25.90;55.30
44851;DHT22;30583;48.714;9.386;2022-07-23T03:34:35;25.80;55.90
44851;DHT22;30583;48.714;9.386;2022-07-23T03:37:01;25.80;56.00
44851;DHT22;30583;48.714;9.386;2022-07-23T03:39:27;25.80;56.00
44851;DHT22;30583;48.714;9.386;2022-07-23T03:41:53;25.70;56.70
44851;DHT22;30583;48.714;9.386;2022-07-23T03:44:18;25.70;56.80
44851;DHT22;30583;48.714;9.386;2022-07-23T03:46:44;25.70;57.00
44851;DHT22;30583;48.714;9.386;2022-07-23T03:49:10;25.40;57.80
44851;DHT22;30583;48.714;9.386;2022-07-23T03:51:35;25.50;57.50
44851;DHT22;30583;48.714;9.386;2022-07-23T03:54:01;25.50;57.30
44851;DHT22;30583;48.714;9.386;2022-07-23T03:56:26;25.30;57.80
44851;DHT22;30583;48.714;9.386;2022-07-23T03:58:52;25.20;58.30
44851;DHT22;30583;48.714;9.386;2022-07-23T04:01:18;25.20;58.10
44851;DHT22;30583;48.714;9.386;2022-07-23T04:03:43;25.10;58.30
44851;DHT22;30583;48.714;9.386;2022-07-23T04:06:09;25.10;58.40
44851;DHT22;30583;48.714;9.386;2022-07-23T04:08:34;25.10;58.20
44851;DHT22;30583;48.714;9.386;2022-07-23T04:11:00;25.10;58.20
44851;DHT22;30583;48.714;9.386;2022-07-23T04:13:26;25.00;59.00
44851;DHT22;30583;48.714;9.386;2022-07-23T04:15:51;25.00;58.40
44851;DHT22;30583;48.714;9.386;2022-07-23T04:18:17;25.10;58.20
44851;DHT22;30583;48.714;9.386;2022-07-23T04:20:44;25.00;58.50
44851;DHT22;30583;48.714;9.386;2022-07-23T04:23:10;25.30;58.60
44851;DHT22;30583;48.714;9.386;2022-07-23T04:25:36;25.10;59.20
44851;DHT22;30583;48.714;9.386;2022-07-23T04:28:02;25.00;59.40
44851;DHT22;30583;48.714;9.386;2022-07-23T04:30:27;25.20;59.30
44851;DHT22;30583;48.714;9.386;2022-07-23T04:32:53;25.00;60.00
44851;DHT22;30583;48.714;9.386;2022-07-23T04:35:19;25.20;59.50
44851;DHT22;30583;48.714;9.386;2022-07-23T04:37:44;25.10;59.90
44851;DHT22;30583;48.714;9.386;2022-07-23T04:40:11;25.20;59.70
44851;DHT22;30583;48.714;9.386;2022-07-23T04:42:37;25.00;60.50
44851;DHT22;30583;48.714;9.386;2022-07-23T04:45:03;24.80;61.10
44851;DHT22;30583;48.714;9.386;2022-07-23T04:47:29;25.20;60.10
44851;DHT22;30583;48.714;9.386;2022-07-23T04:49:56;25.20;60.00
44851;DHT22;30583;48.714;9.386;2022-07-23T04:52:21;24.90;61.00
44851;DHT22;30583;48.714;9.386;2022-07-23T04:54:47;25.00;60.70
44851;DHT22;30583;48.714;9.386;2022-07-23T04:57:12;24.90;60.70
44851;DHT22;30583;48.714;9.386;2022-07-23T04:59:38;24.90;60.90
44851;DHT22;30583;48.714;9.386;2022-07-23T05:02:04;25.00;60.80
44851;DHT22;30583;48.714;9.386;2022-07-23T05:04:29;24.80;61.10
44851;DHT22;30583;48.714;9.386;2022-07-23T05:06:57;24.50;61.70
44851;DHT22;30583;48.714;9.386;2022-07-23T05:09:22;24.50;62.00
44851;DHT22;30583;48.714;9.386;2022-07-23T05:11:48;24.00;63.60
44851;DHT22;30583;48.714;9.386;2022-07-23T05:14:13;24.20;63.50
44851;DHT22;30583;48.714;9.386;2022-07-23T05:16:39;24.60;62.50
44851;DHT22;30583;48.714;9.386;2022-07-23T05:19:05;24.80;61.50
44851;DHT22;30583;48.714;9.386;2022-07-23T05:21:31;25.00;61.50
44851;DHT22;30583;48.714;9.386;2022-07-23T05:23:56;24.80;61.90
44851;DHT22;30583;48.714;9.386;2022-07-23T05:26:22;25.00;61.40
44851;DHT22;30583;48.714;9.386;2022-07-23T05:28:47;25.10;61.30
44851;DHT22;30583;48.714;9.386;2022-07-23T05:31:13;25.00;61.40
44851;DHT22;30583;48.714;9.386;2022-07-23T05:33:38;24.80;62.20
44851;DHT22;30583;48.714;9.386;2022-07-23T05:36:05;24.90;62.10
44851;DHT22;30583;48.714;9.386;2022-07-23T05:38:32;25.00;61.90
44851;DHT22;30583;48.714;9.386;2022-07-23T05:40:58;25.00;61.60
44851;DHT22;30583;48.714;9.386;2022-07-23T05:43:24;25.00;61.70
44851;DHT22;30583;48.714;9.386;2022-07-23T05:45:49;25.00;61.90
44851;DHT22;30583;48.714;9.386;2022-07-23T05:48:15;24.80;62.50
44851;DHT22;30583;48.714;9.386;2022-07-23T05:50:40;24.50;63.70
44851;DHT22;30583;48.714;9.386;2022-07-23T05:53:06;24.80;62.70
44851;DHT22;30583;48.714;9.386;2022-07-23T05:55:32;24.90;62.30
44851;DHT22;30583;48.714;9.386;2022-07-23T05:57:58;25.10;61.90
44851;DHT22;30583;48.714;9.386;2022-07-23T06:00:25;24.80;62.90
44851;DHT22;30583;48.714;9.386;2022-07-23T06:02:51;24.70;63.70
44851;DHT22;30583;48.714;9.386;2022-07-23T06:05:17;25.00;62.80
44851;DHT22;30583;48.714;9.386;2022-07-23T06:07:43;24.90;62.70
44851;DHT22;30583;48.714;9.386;2022-07-23T06:10:09;25.00;62.70
44851;DHT22;30583;48.714;9.386;2022-07-23T06:12:34;25.00;62.70
44851;DHT22;30583;48.714;9.386;2022-07-23T06:15:00;25.20;62.10
44851;DHT22;30583;48.714;9.386;2022-07-23T06:17:26;25.30;61.80
44851;DHT22;30583;48.714;9.386;2022-07-23T06:19:52;25.20;62.10
44851;DHT22;30583;48.714;9.386;2022-07-23T06:22:18;25.10;62.30
44851;DHT22;30583;48.714;9.386;2022-07-23T06:24:44;25.10;61.60
44851;DHT22;30583;48.714;9.386;2022-07-23T06:27:09;25.00;62.40
44851;DHT22;30583;48.714;9.386;2022-07-23T06:29:35;25.20;61.90
44851;DHT22;30583;48.714;9.386;2022-07-23T06:32:01;25.30;61.40
44851;DHT22;30583;48.714;9.386;2022-07-23T06:34:26;25.20;60.90
44851;DHT22;30583;48.714;9.386;2022-07-23T06:36:52;25.20;61.10
44851;DHT22;30583;48.714;9.386;2022-07-23T06:39:17;25.10;61.40
44851;DHT22;30583;48.714;9.386;2022-07-23T06:41:43;25.30;60.80
44851;DHT22;30583;48.714;9.386;2022-07-23T06:44:09;25.30;60.50
44851;DHT22;30583;48.714;9.386;2022-07-23T06:46:34;25.40;59.50
44851;DHT22;30583;48.714;9.386;2022-07-23T06:49:00;25.30;59.60
44851;DHT22;30583;48.714;9.386;2022-07-23T06:51:26;25.40;59.30
44851;DHT22;30583;48.714;9.386;2022-07-23T06:53:51;25.20;59.90
44851;DHT22;30583;48.714;9.386;2022-07-23T06:56:17;25.60;59.30
44851;DHT22;30583;48.714;9.386;2022-07-23T06:58:42;25.50;59.90
44851;DHT22;30583;48.714;9.386;2022-07-23T07:01:08;25.70;59.50
44851;DHT22;30583;48.714;9.386;2022-07-23T07:03:34;25.70;59.70
44851;DHT22;30583;48.714;9.386;2022-07-23T07:05:59;25.90;58.20
44851;DHT22;30583;48.714;9.386;2022-07-23T07:08:25;26.00;58.90
44851;DHT22;30583;48.714;9.386;2022-07-23T07:10:51;25.40;60.50
44851;DHT22;30583;48.714;9.386;2022-07-23T07:13:16;25.50;60.90
44851;DHT22;30583;48.714;9.386;2022-07-23T07:15:42;25.70;59.60
44851;DHT22;30583;48.714;9.386;2022-07-23T07:18:08;26.00;58.90
44851;DHT22;30583;48.714;9.386;2022-07-23T07:20:33;26.10;57.60
44851;DHT22;30583;48.714;9.386;2022-07-23T07:22:59;26.10;57.80
44851;DHT22;30583;48.714;9.386;2022-07-23T07:25:25;25.80;58.80
44851;DHT22;30583;48.714;9.386;2022-07-23T07:27:50;26.00;57.50
44851;DHT22;30583;48.714;9.386;2022-07-23T07:30:16;26.00;57.20
44851;DHT22;30583;48.714;9.386;2022-07-23T07:32:42;26.00;58.00
44851;DHT22;30583;48.714;9.386;2022-07-23T07:35:08;25.60;58.80
44851;DHT22;30583;48.714;9.386;2022-07-23T07:37:34;25.50;58.70
44851;DHT22;30583;48.714;9.386;2022-07-23T07:39:59;25.40;56.90
44851;DHT22;30583;48.714;9.386;2022-07-23T07:42:25;25.40;55.20
44851;DHT22;30583;48.714;9.386;2022-07-23T07:44:51;25.60;54.90
44851;DHT22;30583;48.714;9.386;2022-07-23T07:47:16;25.70;54.90
44851;DHT22;30583;48.714;9.386;2022-07-23T07:49:42;25.50;53.80
44851;DHT22;30583;48.714;9.386;2022-07-23T07:52:09;24.90;54.90
44851;DHT22;30583;48.714;9.386;2022-07-23T07:54:35;25.20;55.20
44851;DHT22;30583;48.714;9.386;2022-07-23T07:57:00;25.60;54.80
44851;DHT22;30583;48.714;9.386;2022-07-23T07:59:26;26.20;53.30
44851;DHT22;30583;48.714;9.386;2022-07-23T08:01:52;26.30;53.60
44851;DHT22;30583;48.714;9.386;2022-07-23T08:04:17;26.10;54.70
44851;DHT22;30583;48.714;9.386;2022-07-23T08:06:44;25.90;53.60
44851;DHT22;30583;48.714;9.386;2022-07-23T08:09:09;26.40;52.60
44851;DHT22;30583;48.714;9.386;2022-07-23T08:11:35;26.60;52.40
44851;DHT22;30583;48.714;9.386;2022-07-23T08:14:00;26.40;52.60
44851;DHT22;30583;48.714;9.386;2022-07-23T08:16:26;26.20;53.00
44851;DHT22;30583;48.714;9.386;2022-07-23T08:18:52;26.10;53.40
44851;DHT22;30583;48.714;9.386;2022-07-23T08:21:17;26.20;53.10
44851;DHT22;30583;48.714;9.386;2022-07-23T08:23:43;26.20;53.40
44851;DHT22;30583;48.714;9.386;2022-07-23T08:26:09;26.30;53.50
44851;DHT22;30583;48.714;9.386;2022-07-23T08:28:34;26.20;53.80
44851;DHT22;30583;48.714;9.386;2022-07-23T08:31:00;26.30;53.40
44851;DHT22;30583;48.714;9.386;2022-07-23T08:33:26;26.30;53.10
44851;DHT22;30583;48.714;9.386;2022-07-23T08:35:51;26.50;52.80
44851;DHT22;30583;48.714;9.386;2022-07-23T08:38:20;26.70;52.20
44851;DHT22;30583;48.714;9.386;2022-07-23T08:40:52;26.50;51.40
44851;DHT22;30583;48.714;9.386;2022-07-23T08:43:23;26.50;51.60
44851;DHT22;30583;48.714;9.386;2022-07-23T08:45:51;26.40;53.60
44851;DHT22;30583;48.714;9.386;2022-07-23T08:48:19;26.70;53.00
44851;DHT22;30583;48.714;9.386;2022-07-23T08:50:56;27.10;51.90
44851;DHT22;30583;48.714;9.386;2022-07-23T08:53:23;27.00;52.50
44851;DHT22;30583;48.714;9.386;2022-07-23T08:55:51;26.70;53.50
44851;DHT22;30583;48.714;9.386;2022-07-23T08:58:17;26.70;54.30
44851;DHT22;30583;48.714;9.386;2022-07-23T09:00:44;26.50;54.00
44851;DHT22;30583;48.714;9.386;2022-07-23T09:03:18;26.80;53.80
44851;DHT22;30583;48.714;9.386;2022-07-23T09:05:44;27.00;54.20
44851;DHT22;30583;48.714;9.386;2022-07-23T09:08:15;26.90;53.50
44851;DHT22;30583;48.714;9.386;2022-07-23T09:10:48;26.60;54.40
44851;DHT22;30583;48.714;9.386;2022-07-23T09:13:35;26.70;54.40
44851;DHT22;30583;48.714;9.386;2022-07-23T09:16:10;27.00;53.60
44851;DHT22;30583;48.714;9.386;2022-07-23T09:18:51;27.10;53.30
44851;DHT22;30583;48.714;9.386;2022-07-23T09:26:28;27.20;53.30
44851;DHT22;30583;48.714;9.386;2022-07-23T09:34:27;28.90;48.70
44851;DHT22;30583;48.714;9.386;2022-07-23T09:37:09;29.10;49.30
44851;DHT22;30583;48.714;9.386;2022-07-23T09:39:35;29.40;48.50
44851;DHT22;30583;48.714;9.386;2022-07-23T09:42:14;29.60;46.90
44851;DHT22;30583;48.714;9.386;2022-07-23T09:44:45;29.70;47.40
44851;DHT22;30583;48.714;9.386;2022-07-23T09:47:11;29.60;47.40
44851;DHT22;30583;48.714;9.386;2022-07-23T09:49:36;30.30;46.90
44851;DHT22;30583;48.714;9.386;2022-07-23T09:52:03;30.50;46.10
44851;DHT22;30583;48.714;9.386;2022-07-23T09:54:37;30.50;45.50
44851;DHT22;30583;48.714;9.386;2022-07-23T09:57:08;30.40;44.30
44851;DHT22;30583;48.714;9.386;2022-07-23T09:59:37;31.00;42.90
44851;DHT22;30583;48.714;9.386;2022-07-23T10:02:05;30.50;44.00
44851;DHT22;30583;48.714;9.386;2022-07-23T10:04:32;30.60;42.40
44851;DHT22;30583;48.714;9.386;2022-07-23T10:07:03;30.80;42.90
44851;DHT22;30583;48.714;9.386;2022-07-23T10:09:31;31.60;41.00
44851;DHT22;30583;48.714;9.386;2022-07-23T10:12:09;31.70;41.30
44851;DHT22;30583;48.714;9.386;2022-07-23T10:14:48;31.70;40.40
44851;DHT22;30583;48.714;9.386;2022-07-23T10:17:14;31.90;40.30
44851;DHT22;30583;48.714;9.386;2022-07-23T10:19:40;32.00;41.10
44851;DHT22;30583;48.714;9.386;2022-07-23T10:22:09;32.20;40.00
44851;DHT22;30583;48.714;9.386;2022-07-23T10:30:02;31.10;40.70
44851;DHT22;30583;48.714;9.386;2022-07-23T10:33:48;31.20;40.00
44851;DHT22;30583;48.714;9.386;2022-07-23T10:36:09;31.40;39.90
44851;DHT22;30583;48.714;9.386;2022-07-23T10:38:42;31.30;40.40
44851;DHT22;30583;48.714;9.386;2022-07-23T10:41:13;30.70;40.60
44851;DHT22;30583;48.714;9.386;2022-07-23T10:43:39;30.70;40.90
44851;DHT22;30583;48.714;9.386;2022-07-23T10:46:24;31.10;40.90
44851;DHT22;30583;48.714;9.386;2022-07-23T10:52:16;30.50;41.70
44851;DHT22;30583;48.714;9.386;2022-07-23T10:57:28;31.10;40.90
44851;DHT22;30583;48.714;9.386;2022-07-23T11:02:32;30.90;39.70
44851;DHT22;30583;48.714;9.386;2022-07-23T11:05:07;30.60;41.30
44851;DHT22;30583;48.714;9.386;2022-07-23T11:07:34;30.90;40.80
44851;DHT22;30583;48.714;9.386;2022-07-23T11:09:59;30.70;40.30
44851;DHT22;30583;48.714;9.386;2022-07-23T11:15:09;30.60;42.10
44851;DHT22;30583;48.714;9.386;2022-07-23T11:20:23;30.80;42.50
44851;DHT22;30583;48.714;9.386;2022-07-23T11:22:54;31.20;42.20
44851;DHT22;30583;48.714;9.386;2022-07-23T11:27:49;31.00;42.60
44851;DHT22;30583;48.714;9.386;2022-07-23T11:35:41;31.50;41.20
44851;DHT22;30583;48.714;9.386;2022-07-23T11:38:21;31.90;40.00
44851;DHT22;30583;48.714;9.386;2022-07-23T11:40:52;32.40;39.10
44851;DHT22;30583;48.714;9.386;2022-07-23T11:43:21;32.70;38.90
44851;DHT22;30583;48.714;9.386;2022-07-23T11:45:49;32.90;38.70
44851;DHT22;30583;48.714;9.386;2022-07-23T11:48:24;31.70;39.00
44851;DHT22;30583;48.714;9.386;2022-07-23T11:50:51;31.70;40.20
44851;DHT22;30583;48.714;9.386;2022-07-23T11:55:49;31.80;39.90
44851;DHT22;30583;48.714;9.386;2022-07-23T11:58:15;31.90;39.60
44851;DHT22;30583;48.714;9.386;2022-07-23T12:00:41;32.20;39.60
44851;DHT22;30583;48.714;9.386;2022-07-23T12:03:07;31.50;39.90
44851;DHT22;30583;48.714;9.386;2022-07-23T12:05:37;32.00;39.10
44851;DHT22;30583;48.714;9.386;2022-07-23T12:08:04;32.20;38.70
44851;DHT22;30583;48.714;9.386;2022-07-23T12:13:05;32.20;39.30
44851;DHT22;30583;48.714;9.386;2022-07-23T12:15:34;32.50;38.60
44851;DHT22;30583;48.714;9.386;2022-07-23T12:18:03;30.50;40.30
44851;DHT22;30583;48.714;9.386;2022-07-23T12:20:41;30.00;41.90
44851;DHT22;30583;48.714;9.386;2022-07-23T12:23:09;31.40;39.90
44851;DHT22;30583;48.714;9.386;2022-07-23T12:25:37;31.60;40.50
44851;DHT22;30583;48.714;9.386;2022-07-23T12:30:37;31.60;40.20
44851;DHT22;30583;48.714;9.386;2022-07-23T12:33:04;31.70;39.90
44851;DHT22;30583;48.714;9.386;2022-07-23T12:35:42;31.40;40.10
44851;DHT22;30583;48.714;9.386;2022-07-23T12:38:16;32.40;38.60
44851;DHT22;30583;48.714;9.386;2022-07-23T12:40:49;32.30;39.20
44851;DHT22;30583;48.714;9.386;2022-07-23T12:45:52;31.80;40.30
44851;DHT22;30583;48.714;9.386;2022-07-23T12:50:52;32.20;39.70
44851;DHT22;30583;48.714;9.386;2022-07-23T12:56:04;32.70;38.80
44851;DHT22;30583;48.714;9.386;2022-07-23T13:01:33;32.70;38.30
44851;DHT22;30583;48.714;9.386;2022-07-23T13:04:15;32.30;39.30
44851;DHT22;30583;48.714;9.386;2022-07-23T13:06:50;33.10;36.90
44851;DHT22;30583;48.714;9.386;2022-07-23T13:09:24;33.20;37.60
44851;DHT22;30583;48.714;9.386;2022-07-23T13:11:52;33.00;37.80
44851;DHT22;30583;48.714;9.386;2022-07-23T13:14:19;32.80;37.40
44851;DHT22;30583;48.714;9.386;2022-07-23T13:16:46;33.00;37.20
44851;DHT22;30583;48.714;9.386;2022-07-23T13:19:12;32.40;38.60
44851;DHT22;30583;48.714;9.386;2022-07-23T13:21:39;32.60;38.20
44851;DHT22;30583;48.714;9.386;2022-07-23T13:24:05;32.60;38.10
44851;DHT22;30583;48.714;9.386;2022-07-23T13:26:30;33.20;37.50
44851;DHT22;30583;48.714;9.386;2022-07-23T13:28:56;32.60;38.70
44851;DHT22;30583;48.714;9.386;2022-07-23T13:31:22;32.50;39.00
44851;DHT22;30583;48.714;9.386;2022-07-23T13:33:47;31.10;40.20
44851;DHT22;30583;48.714;9.386;2022-07-23T13:36:13;31.60;40.30
44851;DHT22;30583;48.714;9.386;2022-07-23T13:38:38;31.30;39.80
44851;DHT22;30583;48.714;9.386;2022-07-23T13:41:04;32.30;38.80
44851;DHT22;30583;48.714;9.386;2022-07-23T13:43:30;32.40;39.40
44851;DHT22;30583;48.714;9.386;2022-07-23T13:45:56;32.70;38.80
44851;DHT22;30583;48.714;9.386;2022-07-23T13:48:22;32.70;38.10
44851;DHT22;30583;48.714;9.386;2022-07-23T13:50:49;32.30;38.50
44851;DHT22;30583;48.714;9.386;2022-07-23T13:53:21;32.40;38.80
44851;DHT22;30583;48.714;9.386;2022-07-23T13:55:48;32.70;38.00
44851;DHT22;30583;48.714;9.386;2022-07-23T13:58:14;32.40;38.70
44851;DHT22;30583;48.714;9.386;2022-07-23T14:00:44;31.40;39.30
44851;DHT22;30583;48.714;9.386;2022-07-23T14:03:10;32.50;39.00
44851;DHT22;30583;48.714;9.386;2022-07-23T14:05:36;32.20;38.40
44851;DHT22;30583;48.714;9.386;2022-07-23T14:08:03;32.00;39.90
44851;DHT22;30583;48.714;9.386;2022-07-23T14:10:28;31.70;39.30
44851;DHT22;30583;48.714;9.386;2022-07-23T14:12:54;32.90;39.70
44851;DHT22;30583;48.714;9.386;2022-07-23T14:15:26;33.20;38.20
44851;DHT22;30583;48.714;9.386;2022-07-23T14:17:52;33.50;38.10
44851;DHT22;30583;48.714;9.386;2022-07-23T14:20:18;32.70;38.60
44851;DHT22;30583;48.714;9.386;2022-07-23T14:22:44;32.30;39.80
44851;DHT22;30583;48.714;9.386;2022-07-23T14:25:10;32.70;39.20
44851;DHT22;30583;48.714;9.386;2022-07-23T14:27:36;32.70;38.00
44851;DHT22;30583;48.714;9.386;2022-07-23T14:30:03;32.00;39.30
44851;DHT22;30583;48.714;9.386;2022-07-23T14:32:29;31.90;39.60
44851;DHT22;30583;48.714;9.386;2022-07-23T14:34:55;32.60;39.00
44851;DHT22;30583;48.714;9.386;2022-07-23T14:37:21;32.80;38.30
44851;DHT22;30583;48.714;9.386;2022-07-23T14:39:47;31.40;39.40
44851;DHT22;30583;48.714;9.386;2022-07-23T14:42:13;31.90;39.10
44851;DHT22;30583;48.714;9.386;2022-07-23T14:44:39;32.50;38.40
44851;DHT22;30583;48.714;9.386;2022-07-23T14:47:05;32.60;37.50
44851;DHT22;30583;48.714;9.386;2022-07-23T14:49:32;32.40;38.20
44851;DHT22;30583;48.714;9.386;2022-07-23T14:51:58;32.30;38.00
44851;DHT22;30583;48.714;9.386;2022-07-23T14:54:24;32.00;38.30
44851;DHT22;30583;48.714;9.386;2022-07-23T14:56:52;32.50;38.20
44851;DHT22;30583;48.714;9.386;2022-07-23T14:59:19;32.20;38.40
44851;DHT22;30583;48.714;9.386;2022-07-23T15:01:44;32.00;39.20
44851;DHT22;30583;48.714;9.386;2022-07-23T15:04:10;31.60;41.30
44851;DHT22;30583;48.714;9.386;2022-07-23T15:06:36;32.50;39.50
44851;DHT22;30583;48.714;9.386;2022-07-23T15:09:02;32.20;39.40
44851;DHT22;30583;48.714;9.386;2022-07-23T15:11:28;31.70;39.70
44851;DHT22;30583;48.714;9.386;2022-07-23T15:13:57;31.70;40.20
44851;DHT22;30583;48.714;9.386;2022-07-23T15:16:23;32.30;39.60
44851;DHT22;30583;48.714;9.386;2022-07-23T15:18:49;32.20;39.50
44851;DHT22;30583;48.714;9.386;2022-07-23T15:21:14;32.30;38.90
44851;DHT22;30583;48.714;9.386;2022-07-23T15:23:40;32.90;38.00
44851;DHT22;30583;48.714;9.386;2022-07-23T15:26:07;32.50;39.10
44851;DHT22;30583;48.714;9.386;2022-07-23T15:28:34;32.50;38.30
44851;DHT22;30583;48.714;9.386;2022-07-23T15:31:00;32.70;37.40
44851;DHT22;30583;48.714;9.386;2022-07-23T15:33:25;32.90;38.10
44851;DHT22;30583;48.714;9.386;2022-07-23T15:35:51;32.50;37.40
44851;DHT22;30583;48.714;9.386;2022-07-23T15:38:18;32.70;37.40
44851;DHT22;30583;48.714;9.386;2022-07-23T15:40:43;32.40;37.10
44851;DHT22;30583;48.714;9.386;2022-07-23T15:43:09;32.20;38.00
44851;DHT22;30583;48.714;9.386;2022-07-23T15:45:35;31.70;38.20
44851;DHT22;30583;48.714;9.386;2022-07-23T15:48:00;31.30;38.90
44851;DHT22;30583;48.714;9.386;2022-07-23T15:50:26;31.10;39.10
44851;DHT22;30583;48.714;9.386;2022-07-23T15:52:52;31.50;38.50
44851;DHT22;30583;48.714;9.386;2022-07-23T15:55:17;32.20;37.40
44851;DHT22;30583;48.714;9.386;2022-07-23T15:57:44;32.40;38.10
44851;DHT22;30583;48.714;9.386;2022-07-23T16:00:10;32.40;37.90
44851;DHT22;30583;48.714;9.386;2022-07-23T16:02:36;31.90;38.90
44851;DHT22;30583;48.714;9.386;2022-07-23T16:05:02;32.20;37.00
44851;DHT22;30583;48.714;9.386;2022-07-23T16:07:46;31.70;37.70
44851;DHT22;30583;48.714;9.386;2022-07-23T16:10:12;31.80;38.30
44851;DHT22;30583;48.714;9.386;2022-07-23T16:12:38;31.90;37.80
44851;DHT22;30583;48.714;9.386;2022-07-23T16:15:03;31.50;38.20
44851;DHT22;30583;48.714;9.386;2022-07-23T16:17:29;30.80;39.00
44851;DHT22;30583;48.714;9.386;2022-07-23T16:19:55;31.40;38.10
44851;DHT22;30583;48.714;9.386;2022-07-23T16:22:21;32.20;37.20
44851;DHT22;30583;48.714;9.386;2022-07-23T16:24:46;32.20;37.20